Al Udeid, Qatar

1:20 AM AST on August 29, 2015 (GMT +0300)
Al Waab | | Change Station
CLOSE
Current Station
Personal Weather Station
Location: Doha, DOHA
Elevation: 69 ft
Nearby Weather Stations

Elev 69 ft 25.26 °N, 51.46 °E | Updated 4 minutes ago

Clear
Clear
93.6 °F
Feels Like 111 °F
N
2.2
Wind Variable Wind from North
Gusts 3.1 mph

Today
High -- | Low -- °F
--% Chance of Precip.
Yesterday
High -- | Low -- °F
Precip. -- in
5:14 AM 5:57 PM
Waxing Gibbous, 99% visible
Pressure 29.53 in
Visibility 3.7 miles
Clouds
Heat Index 111 °F
Dew Point 78 °F
Humidity 62%
Rainfall 0.00 in
Snow Depth Not available.
UV Not available.
Pollen Not available.
Air Quality Not available.
Flu Activity Not available.
METAR OTBD 282200Z 30004KT 260V330 6000 NSC 35/24 Q1000 NOSIG
Pressure 29.53 in
Visibility 3.7 miles
Clouds
Heat Index 111 °F
Dew Point 78 °F
Humidity 62%
Rainfall 0.00 in
Snow Depth Not available.
UV Not available.
Pollen Not available.
Air Quality Not available.
Flu Activity Not available.
METAR OTBD 282200Z 30004KT 260V330 6000 NSC 35/24 Q1000 NOSIG

10-Day Weather Forecast

×

Almanac

Astronomy

Aug. 29, 2015 Rise Set
Actual Time
Civil Twilight
Nautical Twilight
Astronomical Twilight
Moon
Length of Visible Light
Length of Day
Tomorrow will be .
, % of the Moon is Illuminated

Today's Extremes

Country Highs Country Lows

Community

WunderPhotos

Upload Photos

1,850,515 photos uploaded!

WunderBlogs® & News

Nearby

Air Quality

  Air Quality AQ Index Pollutant
Not available.

Snow Depth

Station Depth Elevation

Earthquake Activity

City Distance Mag. Time & Date
Minimum magnitude displayed is 2.5.

Coastal Water Temperatures

Place Temperature

Stations

Nearby Weather Stations

Station Location Temp. Windchill Dew Point Humidity Wind Precip. Elev Updated Type